sensor_id;sensor_type;location;lat;lon;timestamp;pressure;altitude;pressure_sealevel;temperature
40199;BMP280;25906;43.536;26.068;2024-01-11T00:01:36;100056.34;;;-7.45
40199;BMP280;25906;43.536;26.068;2024-01-11T00:04:21;100060.69;;;-7.26
40199;BMP280;25906;43.536;26.068;2024-01-11T00:07:07;100052.75;;;-7.19
40199;BMP280;25906;43.536;26.068;2024-01-11T00:09:52;100053.25;;;-7.37
40199;BMP280;25906;43.536;26.068;2024-01-11T00:12:38;100049.38;;;-7.25
40199;BMP280;25906;43.536;26.068;2024-01-11T00:15:23;100059.66;;;-7.25
40199;BMP280;25906;43.536;26.068;2024-01-11T00:18:11;100056.81;;;-7.33
40199;BMP280;25906;43.536;26.068;2024-01-11T00:20:57;100058.13;;;-7.31
40199;BMP280;25906;43.536;26.068;2024-01-11T00:23:42;100053.50;;;-7.29
40199;BMP280;25906;43.536;26.068;2024-01-11T00:26:30;100050.66;;;-7.22
40199;BMP280;25906;43.536;26.068;2024-01-11T00:29:17;100046.59;;;-7.43
40199;BMP280;25906;43.536;26.068;2024-01-11T00:32:08;100048.09;;;-7.42
40199;BMP280;25906;43.536;26.068;2024-01-11T00:34:57;100046.31;;;-7.37
40199;BMP280;25906;43.536;26.068;2024-01-11T00:37:42;100047.09;;;-7.41
40199;BMP280;25906;43.536;26.068;2024-01-11T00:40:27;100031.13;;;-7.59
40199;BMP280;25906;43.536;26.068;2024-01-11T00:43:13;100027.53;;;-7.78
40199;BMP280;25906;43.536;26.068;2024-01-11T00:45:58;100020.88;;;-7.84
40199;BMP280;25906;43.536;26.068;2024-01-11T00:48:43;100014.72;;;-7.88
40199;BMP280;25906;43.536;26.068;2024-01-11T00:51:31;100020.88;;;-7.69
40199;BMP280;25906;43.536;26.068;2024-01-11T00:54:17;100017.25;;;-7.57
40199;BMP280;25906;43.536;26.068;2024-01-11T00:57:02;100010.09;;;-7.61
40199;BMP280;25906;43.536;26.068;2024-01-11T00:59:50;100007.75;;;-7.72
40199;BMP280;25906;43.536;26.068;2024-01-11T01:02:36;100015.72;;;-7.79
40199;BMP280;25906;43.536;26.068;2024-01-11T01:05:21;100011.63;;;-7.65
40199;BMP280;25906;43.536;26.068;2024-01-11T01:08:09;99998.00;;;-7.70
40199;BMP280;25906;43.536;26.068;2024-01-11T01:10:55;99997.75;;;-7.74
40199;BMP280;25906;43.536;26.068;2024-01-11T01:13:40;100001.09;;;-7.73
40199;BMP280;25906;43.536;26.068;2024-01-11T01:16:25;99994.16;;;-7.73
40199;BMP280;25906;43.536;26.068;2024-01-11T01:19:14;99990.84;;;-7.83
40199;BMP280;25906;43.536;26.068;2024-01-11T01:21:59;99990.00;;;-7.59
40199;BMP280;25906;43.536;26.068;2024-01-11T01:24:44;99980.53;;;-7.73
40199;BMP280;25906;43.536;26.068;2024-01-11T01:27:32;99976.44;;;-7.84
40199;BMP280;25906;43.536;26.068;2024-01-11T01:30:20;99978.22;;;-7.75
40199;BMP280;25906;43.536;26.068;2024-01-11T01:33:06;99972.56;;;-7.62
40199;BMP280;25906;43.536;26.068;2024-01-11T01:35:52;99970.25;;;-7.53
40199;BMP280;25906;43.536;26.068;2024-01-11T01:38:37;99966.88;;;-7.38
40199;BMP280;25906;43.536;26.068;2024-01-11T01:41:25;99965.31;;;-7.39
40199;BMP280;25906;43.536;26.068;2024-01-11T01:44:14;99959.41;;;-7.45
40199;BMP280;25906;43.536;26.068;2024-01-11T01:47:00;99954.78;;;-7.28
40199;BMP280;25906;43.536;26.068;2024-01-11T01:49:47;99957.03;;;-7.21
40199;BMP280;25906;43.536;26.068;2024-01-11T01:52:34;99939.81;;;-7.20
40199;BMP280;25906;43.536;26.068;2024-01-11T01:55:20;99939.59;;;-7.34
40199;BMP280;25906;43.536;26.068;2024-01-11T01:58:05;99938.63;;;-7.43
40199;BMP280;25906;43.536;26.068;2024-01-11T02:00:51;99936.00;;;-7.28
40199;BMP280;25906;43.536;26.068;2024-01-11T02:03:37;99935.69;;;-7.16
40199;BMP280;25906;43.536;26.068;2024-01-11T02:06:25;99934.94;;;-7.22
40199;BMP280;25906;43.536;26.068;2024-01-11T02:09:11;99937.47;;;-7.07
40199;BMP280;25906;43.536;26.068;2024-01-11T02:11:57;99936.47;;;-7.16
40199;BMP280;25906;43.536;26.068;2024-01-11T02:14:46;99922.84;;;-7.16
40199;BMP280;25906;43.536;26.068;2024-01-11T02:17:31;99924.59;;;-7.07
40199;BMP280;25906;43.536;26.068;2024-01-11T02:20:22;99923.25;;;-6.94
40199;BMP280;25906;43.536;26.068;2024-01-11T02:23:12;99924.78;;;-6.93
40199;BMP280;25906;43.536;26.068;2024-01-11T02:25:59;99918.59;;;-6.92
40199;BMP280;25906;43.536;26.068;2024-01-11T02:28:45;99912.44;;;-6.96
40199;BMP280;25906;43.536;26.068;2024-01-11T02:31:30;99905.06;;;-7.08
40199;BMP280;25906;43.536;26.068;2024-01-11T02:34:16;99903.28;;;-7.12
40199;BMP280;25906;43.536;26.068;2024-01-11T02:37:02;99902.78;;;-7.25
40199;BMP280;25906;43.536;26.068;2024-01-11T02:39:47;99897.84;;;-7.11
40199;BMP280;25906;43.536;26.068;2024-01-11T02:42:33;99895.22;;;-7.01
40199;BMP280;25906;43.536;26.068;2024-01-11T02:45:18;99896.00;;;-6.95
40199;BMP280;25906;43.536;26.068;2024-01-11T02:48:04;99892.13;;;-6.98
40199;BMP280;25906;43.536;26.068;2024-01-11T02:50:49;99890.31;;;-6.97
40199;BMP280;25906;43.536;26.068;2024-01-11T02:53:34;99898.31;;;-6.99
40199;BMP280;25906;43.536;26.068;2024-01-11T02:56:20;99889.63;;;-7.08
40199;BMP280;25906;43.536;26.068;2024-01-11T02:59:05;99888.59;;;-7.07
40199;BMP280;25906;43.536;26.068;2024-01-11T03:01:58;99890.88;;;-7.10
40199;BMP280;25906;43.536;26.068;2024-01-11T03:04:52;99892.47;;;-7.14
40199;BMP280;25906;43.536;26.068;2024-01-11T03:07:37;99886.16;;;-7.42
40199;BMP280;25906;43.536;26.068;2024-01-11T03:10:23;99887.22;;;-7.43
40199;BMP280;25906;43.536;26.068;2024-01-11T03:13:08;99890.53;;;-7.48
40199;BMP280;25906;43.536;26.068;2024-01-11T03:15:54;99884.09;;;-7.35
40199;BMP280;25906;43.536;26.068;2024-01-11T03:18:39;99877.09;;;-7.35
40199;BMP280;25906;43.536;26.068;2024-01-11T03:21:24;99879.38;;;-7.23
40199;BMP280;25906;43.536;26.068;2024-01-11T03:24:10;99869.53;;;-7.11
40199;BMP280;25906;43.536;26.068;2024-01-11T03:26:55;99867.47;;;-7.09
40199;BMP280;25906;43.536;26.068;2024-01-11T03:29:40;99861.84;;;-7.06
40199;BMP280;25906;43.536;26.068;2024-01-11T03:32:26;99859.00;;;-7.04
40199;BMP280;25906;43.536;26.068;2024-01-11T03:35:11;99856.59;;;-7.40
40199;BMP280;25906;43.536;26.068;2024-01-11T03:37:57;99853.06;;;-7.59
40199;BMP280;25906;43.536;26.068;2024-01-11T03:40:47;99848.88;;;-7.45
40199;BMP280;25906;43.536;26.068;2024-01-11T03:43:33;99853.84;;;-7.64
40199;BMP280;25906;43.536;26.068;2024-01-11T03:46:24;99842.22;;;-7.56
40199;BMP280;25906;43.536;26.068;2024-01-11T03:49:10;99839.38;;;-7.44
40199;BMP280;25906;43.536;26.068;2024-01-11T03:51:55;99832.50;;;-7.54
40199;BMP280;25906;43.536;26.068;2024-01-11T03:54:43;99831.94;;;-7.46
40199;BMP280;25906;43.536;26.068;2024-01-11T03:57:28;99823.91;;;-7.29
40199;BMP280;25906;43.536;26.068;2024-01-11T04:00:14;99827.44;;;-7.20
40199;BMP280;25906;43.536;26.068;2024-01-11T04:03:02;99830.16;;;-7.01
40199;BMP280;25906;43.536;26.068;2024-01-11T04:05:50;99815.69;;;-6.92
40199;BMP280;25906;43.536;26.068;2024-01-11T04:08:38;99819.03;;;-6.92
40199;BMP280;25906;43.536;26.068;2024-01-11T04:11:27;99817.47;;;-6.87
40199;BMP280;25906;43.536;26.068;2024-01-11T04:14:14;99803.81;;;-6.83
40199;BMP280;25906;43.536;26.068;2024-01-11T04:16:59;99797.22;;;-6.65
40199;BMP280;25906;43.536;26.068;2024-01-11T04:19:44;99793.66;;;-6.69
40199;BMP280;25906;43.536;26.068;2024-01-11T04:22:29;99794.88;;;-6.62
40199;BMP280;25906;43.536;26.068;2024-01-11T04:25:15;99788.09;;;-6.52
40199;BMP280;25906;43.536;26.068;2024-01-11T04:28:00;99795.34;;;-6.54
40199;BMP280;25906;43.536;26.068;2024-01-11T04:30:46;99788.34;;;-6.49
40199;BMP280;25906;43.536;26.068;2024-01-11T04:33:31;99785.81;;;-6.54
40199;BMP280;25906;43.536;26.068;2024-01-11T04:36:17;99787.91;;;-6.56
40199;BMP280;25906;43.536;26.068;2024-01-11T04:39:02;99782.50;;;-6.60
40199;BMP280;25906;43.536;26.068;2024-01-11T04:41:48;99773.84;;;-6.45
40199;BMP280;25906;43.536;26.068;2024-01-11T04:44:33;99781.72;;;-6.55
40199;BMP280;25906;43.536;26.068;2024-01-11T04:47:19;99777.94;;;-6.68
40199;BMP280;25906;43.536;26.068;2024-01-11T04:50:05;99779.06;;;-7.13
40199;BMP280;25906;43.536;26.068;2024-01-11T04:52:51;99785.81;;;-6.83
40199;BMP280;25906;43.536;26.068;2024-01-11T04:55:36;99777.19;;;-6.68
40199;BMP280;25906;43.536;26.068;2024-01-11T04:58:22;99776.94;;;-6.72
40199;BMP280;25906;43.536;26.068;2024-01-11T05:01:13;99775.38;;;-6.68
40199;BMP280;25906;43.536;26.068;2024-01-11T05:03:59;99776.66;;;-6.70
40199;BMP280;25906;43.536;26.068;2024-01-11T05:06:44;99785.66;;;-6.68
40199;BMP280;25906;43.536;26.068;2024-01-11T05:09:30;99770.34;;;-6.54
40199;BMP280;25906;43.536;26.068;2024-01-11T05:12:15;99775.03;;;-6.61
40199;BMP280;25906;43.536;26.068;2024-01-11T05:15:01;99774.72;;;-6.54
40199;BMP280;25906;43.536;26.068;2024-01-11T05:17:47;99775.53;;;-6.59
40199;BMP280;25906;43.536;26.068;2024-01-11T05:20:32;99769.69;;;-6.65
40199;BMP280;25906;43.536;26.068;2024-01-11T05:23:19;99755.22;;;-6.55
40199;BMP280;25906;43.536;26.068;2024-01-11T05:26:04;99765.59;;;-6.71
40199;BMP280;25906;43.536;26.068;2024-01-11T05:28:50;99766.84;;;-6.63
40199;BMP280;25906;43.536;26.068;2024-01-11T05:31:36;99756.59;;;-6.68
40199;BMP280;25906;43.536;26.068;2024-01-11T05:34:21;99759.38;;;-6.94
40199;BMP280;25906;43.536;26.068;2024-01-11T05:37:06;99758.78;;;-6.85
40199;BMP280;25906;43.536;26.068;2024-01-11T05:39:54;99756.13;;;-6.75
40199;BMP280;25906;43.536;26.068;2024-01-11T05:42:42;99756.75;;;-6.60
40199;BMP280;25906;43.536;26.068;2024-01-11T05:45:27;99747.19;;;-6.54
40199;BMP280;25906;43.536;26.068;2024-01-11T05:48:12;99738.44;;;-6.53
40199;BMP280;25906;43.536;26.068;2024-01-11T05:51:00;99739.50;;;-6.59
40199;BMP280;25906;43.536;26.068;2024-01-11T05:53:49;99744.63;;;-6.54
40199;BMP280;25906;43.536;26.068;2024-01-11T05:56:35;99737.66;;;-6.53
40199;BMP280;25906;43.536;26.068;2024-01-11T05:59:20;99734.81;;;-6.52
40199;BMP280;25906;43.536;26.068;2024-01-11T06:02:05;99741.44;;;-6.46
40199;BMP280;25906;43.536;26.068;2024-01-11T06:04:51;99741.78;;;-6.29
40199;BMP280;25906;43.536;26.068;2024-01-11T06:07:36;99754.41;;;-6.27
40199;BMP280;25906;43.536;26.068;2024-01-11T06:10:21;99742.00;;;-6.25
40199;BMP280;25906;43.536;26.068;2024-01-11T06:13:07;99741.34;;;-6.12
40199;BMP280;25906;43.536;26.068;2024-01-11T06:15:53;99747.03;;;-5.91
40199;BMP280;25906;43.536;26.068;2024-01-11T06:18:39;99742.50;;;-5.99
40199;BMP280;25906;43.536;26.068;2024-01-11T06:21:24;99742.16;;;-5.74
40199;BMP280;25906;43.536;26.068;2024-01-11T06:24:09;99746.97;;;-5.48
40199;BMP280;25906;43.536;26.068;2024-01-11T06:26:55;99744.34;;;-5.43
40199;BMP280;25906;43.536;26.068;2024-01-11T06:29:40;99755.06;;;-5.36
40199;BMP280;25906;43.536;26.068;2024-01-11T06:32:25;99751.06;;;-5.29
40199;BMP280;25906;43.536;26.068;2024-01-11T06:35:11;99746.19;;;-5.11
40199;BMP280;25906;43.536;26.068;2024-01-11T06:37:56;99744.78;;;-5.04
40199;BMP280;25906;43.536;26.068;2024-01-11T06:40:41;99735.78;;;-4.93
40199;BMP280;25906;43.536;26.068;2024-01-11T06:43:28;99737.44;;;-4.97
40199;BMP280;25906;43.536;26.068;2024-01-11T06:46:13;99739.53;;;-4.99
40199;BMP280;25906;43.536;26.068;2024-01-11T06:49:04;99739.84;;;-4.87
40199;BMP280;25906;43.536;26.068;2024-01-11T06:51:50;99725.16;;;-4.72
40199;BMP280;25906;43.536;26.068;2024-01-11T06:54:35;99733.44;;;-4.62
40199;BMP280;25906;43.536;26.068;2024-01-11T06:57:20;99725.38;;;-4.55
40199;BMP280;25906;43.536;26.068;2024-01-11T07:00:07;99722.47;;;-4.40
40199;BMP280;25906;43.536;26.068;2024-01-11T07:02:56;99722.38;;;-4.35
40199;BMP280;25906;43.536;26.068;2024-01-11T07:05:41;99721.13;;;-4.24
40199;BMP280;25906;43.536;26.068;2024-01-11T07:08:27;99722.00;;;-4.42
40199;BMP280;25906;43.536;26.068;2024-01-11T07:11:12;99718.28;;;-4.36
40199;BMP280;25906;43.536;26.068;2024-01-11T07:13:58;99720.13;;;-4.00
40199;BMP280;25906;43.536;26.068;2024-01-11T07:16:44;99721.34;;;-3.98
40199;BMP280;25906;43.536;26.068;2024-01-11T07:19:29;99719.94;;;-4.04
40199;BMP280;25906;43.536;26.068;2024-01-11T07:22:15;99710.19;;;-3.93
40199;BMP280;25906;43.536;26.068;2024-01-11T07:25:01;99720.28;;;-3.83
40199;BMP280;25906;43.536;26.068;2024-01-11T07:27:46;99715.22;;;-3.88
40199;BMP280;25906;43.536;26.068;2024-01-11T07:30:31;99721.69;;;-3.77
40199;BMP280;25906;43.536;26.068;2024-01-11T07:33:17;99712.22;;;-3.68
40199;BMP280;25906;43.536;26.068;2024-01-11T07:36:06;99709.03;;;-3.65
40199;BMP280;25906;43.536;26.068;2024-01-11T07:38:53;99705.31;;;-3.72
40199;BMP280;25906;43.536;26.068;2024-01-11T07:41:40;99711.38;;;-3.55
40199;BMP280;25906;43.536;26.068;2024-01-11T07:44:26;99710.09;;;-3.44
40199;BMP280;25906;43.536;26.068;2024-01-11T07:47:14;99707.72;;;-3.31
40199;BMP280;25906;43.536;26.068;2024-01-11T07:50:00;99703.13;;;-3.34
40199;BMP280;25906;43.536;26.068;2024-01-11T07:52:45;99706.66;;;-3.30
40199;BMP280;25906;43.536;26.068;2024-01-11T07:55:33;99698.25;;;-3.14
40199;BMP280;25906;43.536;26.068;2024-01-11T07:58:18;99694.28;;;-3.11
40199;BMP280;25906;43.536;26.068;2024-01-11T08:01:05;99699.16;;;-3.10
40199;BMP280;25906;43.536;26.068;2024-01-11T08:03:50;99702.91;;;-2.93
40199;BMP280;25906;43.536;26.068;2024-01-11T08:06:37;99699.06;;;-2.96
40199;BMP280;25906;43.536;26.068;2024-01-11T08:09:23;99693.22;;;-3.10
40199;BMP280;25906;43.536;26.068;2024-01-11T08:12:08;99705.66;;;-2.90
40199;BMP280;25906;43.536;26.068;2024-01-11T08:14:53;99693.91;;;-2.96
40199;BMP280;25906;43.536;26.068;2024-01-11T08:17:43;99690.94;;;-3.03
40199;BMP280;25906;43.536;26.068;2024-01-11T08:20:29;99681.16;;;-2.75
40199;BMP280;25906;43.536;26.068;2024-01-11T08:23:14;99679.84;;;-2.64
40199;BMP280;25906;43.536;26.068;2024-01-11T08:26:00;99683.00;;;-2.76
40199;BMP280;25906;43.536;26.068;2024-01-11T08:28:45;99678.78;;;-2.63
40199;BMP280;25906;43.536;26.068;2024-01-11T08:31:31;99678.50;;;-2.53
40199;BMP280;25906;43.536;26.068;2024-01-11T08:34:20;99674.53;;;-2.50
40199;BMP280;25906;43.536;26.068;2024-01-11T08:37:26;99668.59;;;-2.34
40199;BMP280;25906;43.536;26.068;2024-01-11T08:40:11;99660.25;;;-2.13
40199;BMP280;25906;43.536;26.068;2024-01-11T08:42:57;99659.34;;;-2.17
40199;BMP280;25906;43.536;26.068;2024-01-11T08:45:43;99661.28;;;-1.97
40199;BMP280;25906;43.536;26.068;2024-01-11T08:48:31;99639.94;;;-2.03
40199;BMP280;25906;43.536;26.068;2024-01-11T08:51:16;99649.25;;;-1.76
40199;BMP280;25906;43.536;26.068;2024-01-11T08:54:02;99648.16;;;-1.83
40199;BMP280;25906;43.536;26.068;2024-01-11T08:56:47;99640.06;;;-1.73
40199;BMP280;25906;43.536;26.068;2024-01-11T08:59:39;99630.69;;;-1.48
40199;BMP280;25906;43.536;26.068;2024-01-11T09:02:24;99627.72;;;-1.21
40199;BMP280;25906;43.536;26.068;2024-01-11T09:05:10;99632.09;;;-1.13
40199;BMP280;25906;43.536;26.068;2024-01-11T09:07:55;99624.13;;;-1.08
40199;BMP280;25906;43.536;26.068;2024-01-11T09:10:43;99624.19;;;-0.96
40199;BMP280;25906;43.536;26.068;2024-01-11T09:13:31;99609.66;;;-0.88
40199;BMP280;25906;43.536;26.068;2024-01-11T09:16:20;99616.84;;;-0.64
40199;BMP280;25906;43.536;26.068;2024-01-11T09:19:05;99600.47;;;-0.65
40199;BMP280;25906;43.536;26.068;2024-01-11T09:21:57;99593.78;;;-0.54
40199;BMP280;25906;43.536;26.068;2024-01-11T09:24:42;99599.56;;;-0.27
40199;BMP280;25906;43.536;26.068;2024-01-11T09:27:27;99589.81;;;-0.30
40199;BMP280;25906;43.536;26.068;2024-01-11T09:30:16;99577.94;;;-0.19
40199;BMP280;25906;43.536;26.068;2024-01-11T09:33:01;99570.66;;;-0.14
40199;BMP280;25906;43.536;26.068;2024-01-11T09:35:47;99556.81;;;-0.06
40199;BMP280;25906;43.536;26.068;2024-01-11T09:38:32;99555.03;;;0.19
40199;BMP280;25906;43.536;26.068;2024-01-11T09:41:18;99544.81;;;0.26
40199;BMP280;25906;43.536;26.068;2024-01-11T09:44:05;99529.41;;;0.33
40199;BMP280;25906;43.536;26.068;2024-01-11T09:46:54;99531.03;;;0.50
40199;BMP280;25906;43.536;26.068;2024-01-11T09:49:40;99524.28;;;0.49
40199;BMP280;25906;43.536;26.068;2024-01-11T09:52:26;99521.38;;;0.63
40199;BMP280;25906;43.536;26.068;2024-01-11T09:55:14;99515.94;;;0.68
40199;BMP280;25906;43.536;26.068;2024-01-11T09:58:03;99514.53;;;0.70
40199;BMP280;25906;43.536;26.068;2024-01-11T10:00:55;99509.59;;;0.81
40199;BMP280;25906;43.536;26.068;2024-01-11T10:03:47;99506.16;;;0.77
40199;BMP280;25906;43.536;26.068;2024-01-11T10:06:34;99516.88;;;0.75
40199;BMP280;25906;43.536;26.068;2024-01-11T10:09:21;99516.56;;;0.77
40199;BMP280;25906;43.536;26.068;2024-01-11T10:12:08;99506.16;;;0.65
40199;BMP280;25906;43.536;26.068;2024-01-11T10:14:54;99498.97;;;0.86
40199;BMP280;25906;43.536;26.068;2024-01-11T10:17:43;99494.28;;;0.92
40199;BMP280;25906;43.536;26.068;2024-01-11T10:20:29;99505.66;;;0.99
40199;BMP280;25906;43.536;26.068;2024-01-11T10:23:17;99500.63;;;1.06
40199;BMP280;25906;43.536;26.068;2024-01-11T10:26:05;99492.91;;;1.10
40199;BMP280;25906;43.536;26.068;2024-01-11T10:28:59;99461.97;;;1.08
40199;BMP280;25906;43.536;26.068;2024-01-11T10:31:56;99467.38;;;1.15
40199;BMP280;25906;43.536;26.068;2024-01-11T10:34:44;99461.09;;;1.04
40199;BMP280;25906;43.536;26.068;2024-01-11T10:37:33;99449.63;;;1.21
40199;BMP280;25906;43.536;26.068;2024-01-11T10:40:19;99457.84;;;1.07
40199;BMP280;25906;43.536;26.068;2024-01-11T10:43:10;99445.69;;;1.11
40199;BMP280;25906;43.536;26.068;2024-01-11T10:45:59;99438.75;;;1.03
40199;BMP280;25906;43.536;26.068;2024-01-11T10:48:46;99435.69;;;1.29
40199;BMP280;25906;43.536;26.068;2024-01-11T10:51:33;99430.41;;;1.26
40199;BMP280;25906;43.536;26.068;2024-01-11T10:54:21;99419.38;;;1.32
40199;BMP280;25906;43.536;26.068;2024-01-11T10:57:08;99424.84;;;1.43
40199;BMP280;25906;43.536;26.068;2024-01-11T10:59:54;99409.88;;;1.55
40199;BMP280;25906;43.536;26.068;2024-01-11T11:02:41;99411.28;;;1.37
40199;BMP280;25906;43.536;26.068;2024-01-11T11:05:28;99400.25;;;1.44
40199;BMP280;25906;43.536;26.068;2024-01-11T11:08:15;99399.53;;;1.43
40199;BMP280;25906;43.536;26.068;2024-01-11T11:11:03;99401.88;;;1.48
40199;BMP280;25906;43.536;26.068;2024-01-11T11:13:55;99390.34;;;1.34
40199;BMP280;25906;43.536;26.068;2024-01-11T11:16:42;99388.00;;;1.29
40199;BMP280;25906;43.536;26.068;2024-01-11T11:19:29;99373.59;;;1.03
40199;BMP280;25906;43.536;26.068;2024-01-11T11:22:15;99370.59;;;1.33
40199;BMP280;25906;43.536;26.068;2024-01-11T11:25:07;99370.16;;;1.15
40199;BMP280;25906;43.536;26.068;2024-01-11T11:27:53;99369.34;;;1.27
40199;BMP280;25906;43.536;26.068;2024-01-11T11:30:41;99368.41;;;1.35
40199;BMP280;25906;43.536;26.068;2024-01-11T11:33:26;99371.34;;;1.17
40199;BMP280;25906;43.536;26.068;2024-01-11T11:36:12;99356.66;;;1.25
40199;BMP280;25906;43.536;26.068;2024-01-11T11:39:02;99353.50;;;1.35
40199;BMP280;25906;43.536;26.068;2024-01-11T11:41:50;99352.63;;;1.28
40199;BMP280;25906;43.536;26.068;2024-01-11T11:44:50;99344.09;;;1.31
40199;BMP280;25906;43.536;26.068;2024-01-11T11:47:36;99339.47;;;1.24
40199;BMP280;25906;43.536;26.068;2024-01-11T11:50:23;99335.31;;;1.39
40199;BMP280;25906;43.536;26.068;2024-01-11T11:53:11;99335.25;;;1.35
40199;BMP280;25906;43.536;26.068;2024-01-11T11:55:56;99332.00;;;1.23
40199;BMP280;25906;43.536;26.068;2024-01-11T11:58:46;99317.97;;;1.27
40199;BMP280;25906;43.536;26.068;2024-01-11T12:01:32;99316.75;;;1.40
40199;BMP280;25906;43.536;26.068;2024-01-11T12:04:21;99312.72;;;1.43
40199;BMP280;25906;43.536;26.068;2024-01-11T12:07:06;99300.22;;;1.33
40199;BMP280;25906;43.536;26.068;2024-01-11T12:09:52;99306.03;;;1.26
40199;BMP280;25906;43.536;26.068;2024-01-11T12:12:40;99295.81;;;1.21
40199;BMP280;25906;43.536;26.068;2024-01-11T12:15:35;99289.94;;;1.24
40199;BMP280;25906;43.536;26.068;2024-01-11T12:18:20;99282.88;;;1.25
40199;BMP280;25906;43.536;26.068;2024-01-11T12:21:06;99286.63;;;1.43
40199;BMP280;25906;43.536;26.068;2024-01-11T12:23:53;99282.41;;;1.54
40199;BMP280;25906;43.536;26.068;2024-01-11T12:26:41;99274.25;;;1.55
40199;BMP280;25906;43.536;26.068;2024-01-11T12:29:32;99269.88;;;1.44
40199;BMP280;25906;43.536;26.068;2024-01-11T12:32:18;99268.94;;;1.33
40199;BMP280;25906;43.536;26.068;2024-01-11T12:35:03;99270.56;;;1.41
40199;BMP280;25906;43.536;26.068;2024-01-11T12:37:53;99269.38;;;1.19
40199;BMP280;25906;43.536;26.068;2024-01-11T12:40:39;99263.28;;;1.31
40199;BMP280;25906;43.536;26.068;2024-01-11T12:43:28;99247.47;;;1.24
40199;BMP280;25906;43.536;26.068;2024-01-11T12:46:14;99245.06;;;1.50
40199;BMP280;25906;43.536;26.068;2024-01-11T12:49:01;99245.03;;;1.31
40199;BMP280;25906;43.536;26.068;2024-01-11T12:51:46;99240.66;;;1.54
40199;BMP280;25906;43.536;26.068;2024-01-11T12:54:32;99238.44;;;1.37
40199;BMP280;25906;43.536;26.068;2024-01-11T12:57:19;99232.13;;;1.38
40199;BMP280;25906;43.536;26.068;2024-01-11T13:00:12;99236.13;;;1.16
40199;BMP280;25906;43.536;26.068;2024-01-11T13:03:01;99221.00;;;1.06
40199;BMP280;25906;43.536;26.068;2024-01-11T13:05:46;99217.91;;;1.00
40199;BMP280;25906;43.536;26.068;2024-01-11T13:08:32;99216.47;;;1.19
40199;BMP280;25906;43.536;26.068;2024-01-11T13:11:19;99212.59;;;1.12
40199;BMP280;25906;43.536;26.068;2024-01-11T13:14:06;99206.72;;;1.15
40199;BMP280;25906;43.536;26.068;2024-01-11T13:16:56;99196.66;;;0.83
40199;BMP280;25906;43.536;26.068;2024-01-11T13:19:42;99199.75;;;0.88
40199;BMP280;25906;43.536;26.068;2024-01-11T13:22:33;99195.97;;;1.17
40199;BMP280;25906;43.536;26.068;2024-01-11T13:25:21;99200.41;;;1.16
40199;BMP280;25906;43.536;26.068;2024-01-11T13:28:07;99192.44;;;1.09
40199;BMP280;25906;43.536;26.068;2024-01-11T13:30:52;99195.28;;;1.04
40199;BMP280;25906;43.536;26.068;2024-01-11T13:33:38;99190.81;;;1.05
40199;BMP280;25906;43.536;26.068;2024-01-11T13:36:26;99192.03;;;0.92
40199;BMP280;25906;43.536;26.068;2024-01-11T13:39:11;99184.53;;;0.90
40199;BMP280;25906;43.536;26.068;2024-01-11T13:41:57;99191.03;;;0.81
40199;BMP280;25906;43.536;26.068;2024-01-11T13:44:43;99172.94;;;0.72
40199;BMP280;25906;43.536;26.068;2024-01-11T13:47:31;99172.72;;;0.61
40199;BMP280;25906;43.536;26.068;2024-01-11T13:50:26;99169.63;;;0.71
40199;BMP280;25906;43.536;26.068;2024-01-11T13:53:11;99166.50;;;0.50
40199;BMP280;25906;43.536;26.068;2024-01-11T13:56:00;99170.19;;;0.81
40199;BMP280;25906;43.536;26.068;2024-01-11T13:58:45;99168.50;;;0.41
40199;BMP280;25906;43.536;26.068;2024-01-11T14:01:31;99168.66;;;0.48
40199;BMP280;25906;43.536;26.068;2024-01-11T14:04:19;99166.47;;;0.34
40199;BMP280;25906;43.536;26.068;2024-01-11T14:07:08;99167.75;;;0.40
40199;BMP280;25906;43.536;26.068;2024-01-11T14:09:56;99166.41;;;0.47
40199;BMP280;25906;43.536;26.068;2024-01-11T14:12:41;99155.47;;;0.10
40199;BMP280;25906;43.536;26.068;2024-01-11T14:15:27;99148.56;;;0.02
40199;BMP280;25906;43.536;26.068;2024-01-11T14:18:13;99144.63;;;-0.08
40199;BMP280;25906;43.536;26.068;2024-01-11T14:20:58;99142.03;;;-0.08
40199;BMP280;25906;43.536;26.068;2024-01-11T14:23:44;99131.06;;;-0.29
40199;BMP280;25906;43.536;26.068;2024-01-11T14:26:31;99131.91;;;-0.25
40199;BMP280;25906;43.536;26.068;2024-01-11T14:29:16;99127.16;;;-0.35
40199;BMP280;25906;43.536;26.068;2024-01-11T14:32:06;99127.00;;;-0.55
40199;BMP280;25906;43.536;26.068;2024-01-11T14:34:51;99122.78;;;-0.59
40199;BMP280;25906;43.536;26.068;2024-01-11T14:37:43;99115.97;;;-0.64
40199;BMP280;25906;43.536;26.068;2024-01-11T14:40:29;99111.81;;;-0.81
40199;BMP280;25906;43.536;26.068;2024-01-11T14:43:15;99110.38;;;-0.78
40199;BMP280;25906;43.536;26.068;2024-01-11T14:46:00;99116.13;;;-0.85
40199;BMP280;25906;43.536;26.068;2024-01-11T14:48:46;99112.00;;;-0.73
40199;BMP280;25906;43.536;26.068;2024-01-11T14:51:31;99115.16;;;-0.80
40199;BMP280;25906;43.536;26.068;2024-01-11T14:54:19;99109.00;;;-0.88
40199;BMP280;25906;43.536;26.068;2024-01-11T14:57:06;99104.91;;;-0.89
40199;BMP280;25906;43.536;26.068;2024-01-11T14:59:52;99105.22;;;-0.90
40199;BMP280;25906;43.536;26.068;2024-01-11T15:02:40;99104.81;;;-1.17
40199;BMP280;25906;43.536;26.068;2024-01-11T15:05:34;99107.56;;;-0.73
40199;BMP280;25906;43.536;26.068;2024-01-11T15:08:21;99091.59;;;-0.99
40199;BMP280;25906;43.536;26.068;2024-01-11T15:11:07;99089.34;;;-1.13
40199;BMP280;25906;43.536;26.068;2024-01-11T15:13:53;99089.34;;;-1.13
40199;BMP280;25906;43.536;26.068;2024-01-11T15:16:38;99090.22;;;-1.33
40199;BMP280;25906;43.536;26.068;2024-01-11T15:19:29;99087.50;;;-1.49
40199;BMP280;25906;43.536;26.068;2024-01-11T15:22:18;99081.75;;;-1.42
40199;BMP280;25906;43.536;26.068;2024-01-11T15:25:04;99081.75;;;-1.42
40199;BMP280;25906;43.536;26.068;2024-01-11T15:28:13;99066.94;;;-1.42
40199;BMP280;25906;43.536;26.068;2024-01-11T15:30:58;99071.38;;;-1.67
40199;BMP280;25906;43.536;26.068;2024-01-11T15:33:47;99072.81;;;-1.69
40199;BMP280;25906;43.536;26.068;2024-01-11T15:36:32;99068.16;;;-1.76
40199;BMP280;25906;43.536;26.068;2024-01-11T15:39:18;99067.50;;;-1.73
40199;BMP280;25906;43.536;26.068;2024-01-11T15:42:03;99060.78;;;-1.74
40199;BMP280;25906;43.536;26.068;2024-01-11T15:44:50;99063.81;;;-1.84
40199;BMP280;25906;43.536;26.068;2024-01-11T15:47:35;99068.69;;;-1.70
40199;BMP280;25906;43.536;26.068;2024-01-11T15:50:23;99061.84;;;-1.87